Grayling, Alaska
Current Conditions -  °F | °C
As of 5:56 AM on Wednesday 26 Nov 2014 (Local Time) from PANV Reporting Station
Overcast Overcast  
Wind Chill:   Ceiling: 2100
Heat Index: 16°   Visibility: 10mi
Dew Point: 10°   Wind: 10mph
Humidity: 79%   Direction: 50°NE
Pressure: 30.32"   Gusts: NA
Location:  62.92°N, 160.07°W
Report Text: PANV 261456Z AUTO 05009KT 10SM OVC021 M09/M12 A3032 RMK AO1 57007
Loading
Personal Weather Stations






























Interactive Weather Map New forecast layout! Learn more

10-Day Weather Forecast

Advertisements
Track Severe Weather on mobile